createdAt,value
2022-09-12T00:02:37.160Z,13.18
2022-09-12T00:07:38.924Z,13.23
2022-09-12T00:12:40.685Z,13.21
2022-09-12T00:17:42.371Z,13.07
2022-09-12T00:22:44.111Z,13.07
2022-09-12T00:27:45.934Z,13.12
2022-09-12T00:32:47.631Z,13.14
2022-09-12T00:37:49.325Z,13.02
2022-09-12T00:42:51.028Z,13.04
2022-09-12T00:47:53.705Z,13.03
2022-09-12T00:53:00.097Z,12.95
2022-09-12T00:58:07.543Z,12.87
2022-09-12T01:03:14.790Z,12.77
2022-09-12T01:08:17.839Z,12.83
2022-09-12T01:13:19.894Z,12.90
2022-09-12T01:18:34.422Z,12.91
2022-09-12T01:23:48.251Z,12.95
2022-09-12T01:28:52.981Z,12.98
2022-09-12T01:34:00.892Z,12.90
2022-09-12T01:39:05.854Z,12.90
2022-09-12T01:44:15.642Z,12.79
2022-09-12T01:49:27.269Z,12.76
2022-09-12T01:54:43.541Z,12.78
2022-09-12T01:59:49.691Z,12.78
2022-09-12T02:05:10.331Z,12.63
2022-09-12T02:10:15.351Z,12.58
2022-09-12T02:15:20.900Z,12.70
2022-09-12T02:20:49.493Z,12.75
2022-09-12T02:25:54.755Z,12.82
2022-09-12T02:31:20.801Z,12.75
2022-09-12T02:36:29.641Z,12.86
2022-09-12T02:41:31.608Z,12.82
2022-09-12T02:46:48.783Z,12.96
2022-09-12T02:51:51.220Z,12.98
2022-09-12T02:56:52.912Z,13.00
2022-09-12T03:02:15.949Z,12.98
2022-09-12T03:07:45.544Z,13.03
2022-09-12T03:13:01.581Z,13.11
2022-09-12T03:18:11.111Z,13.10
2022-09-12T03:23:34.774Z,12.89
2022-09-12T03:28:37.822Z,13.01
2022-09-12T03:33:39.500Z,12.93
2022-09-12T03:38:41.222Z,13.04
2022-09-12T03:43:43.035Z,12.91
2022-09-12T03:48:44.696Z,13.06
2022-09-12T03:53:46.694Z,13.21
2022-09-12T03:58:48.346Z,13.22
2022-09-12T04:03:51.833Z,13.18
2022-09-12T04:08:55.551Z,13.24
2022-09-12T04:13:57.186Z,13.21
2022-09-12T04:18:59.566Z,13.21
2022-09-12T04:24:01.665Z,13.20
2022-09-12T04:29:03.466Z,13.19
2022-09-12T04:34:05.663Z,13.24
2022-09-12T04:39:08.108Z,13.30
2022-09-12T04:44:14.464Z,13.34
2022-09-12T04:49:17.581Z,13.28
2022-09-12T04:54:20.086Z,13.31
2022-09-12T04:59:22.434Z,13.23
2022-09-12T05:04:24.343Z,13.14
2022-09-12T05:15:58.795Z,13.13
2022-09-12T05:21:03.954Z,13.08
2022-09-12T05:26:07.104Z,13.16
2022-09-12T05:31:14.492Z,13.20
2022-09-12T05:36:21.893Z,13.14
2022-09-12T05:41:26.253Z,13.23
2022-09-12T05:46:35.941Z,13.23
2022-09-12T05:51:41.614Z,13.26
2022-09-12T05:56:44.943Z,13.28
2022-09-12T06:01:46.967Z,13.14
2022-09-12T06:06:48.972Z,13.04
2022-09-12T06:11:54.407Z,13.01
2022-09-12T06:16:56.642Z,13.01
2022-09-12T06:21:58.924Z,13.04
2022-09-12T06:27:02.451Z,13.07
2022-09-12T06:32:04.804Z,13.26
2022-09-12T06:37:06.693Z,13.49
2022-09-12T06:42:08.463Z,13.64
2022-09-12T06:47:10.210Z,13.55
2022-09-12T06:52:12.033Z,13.59
2022-09-12T06:57:13.836Z,13.74
2022-09-12T07:02:15.652Z,13.79
2022-09-12T07:07:18.158Z,14.04
2022-09-12T07:12:23.482Z,14.15
2022-09-12T07:17:25.734Z,14.31
2022-09-12T07:22:27.447Z,14.49
2022-09-12T07:27:29.229Z,14.37
2022-09-12T07:32:31.137Z,14.45
2022-09-12T07:37:32.937Z,14.27
2022-09-12T07:42:34.725Z,14.52
2022-09-12T07:47:38.794Z,14.82
2022-09-12T07:52:40.544Z,14.92
2022-09-12T07:57:42.727Z,14.88
2022-09-12T08:02:44.853Z,15.07
2022-09-12T08:07:47.216Z,15.39
2022-09-12T08:12:49.075Z,15.76
2022-09-12T08:17:51.167Z,15.63
2022-09-12T08:22:52.997Z,15.70
2022-09-12T08:27:55.727Z,15.71
2022-09-12T08:32:57.435Z,16.33
2022-09-12T08:37:59.146Z,16.21
2022-09-12T08:43:14.258Z,16.59
2022-09-12T08:48:16.183Z,17.09
2022-09-12T08:53:23.573Z,17.82
2022-09-12T08:58:28.128Z,18.33
2022-09-12T09:03:48.210Z,18.21
2022-09-12T09:09:30.017Z,18.19
2022-09-12T09:14:55.190Z,18.56
2022-09-12T09:20:06.543Z,18.99
2022-09-12T09:25:48.406Z,19.22
2022-09-12T09:30:51.588Z,19.08
2022-09-12T09:36:22.668Z,18.94
2022-09-12T09:41:37.958Z,19.29
2022-09-12T09:46:39.771Z,19.84
2022-09-12T09:51:43.254Z,19.73
2022-09-12T09:56:45.985Z,19.92
2022-09-12T10:01:57.135Z,20.53
2022-09-12T10:07:03.211Z,20.45
2022-09-12T10:12:28.916Z,20.59
2022-09-12T10:17:40.465Z,20.91
2022-09-12T10:22:47.845Z,21.35
2022-09-12T10:27:56.261Z,21.61
2022-09-12T10:33:06.666Z,21.61
2022-09-12T10:38:24.168Z,21.69
2022-09-12T10:43:25.926Z,21.43
2022-09-12T10:48:32.613Z,21.47
2022-09-12T10:53:43.982Z,21.22
2022-09-12T10:59:01.768Z,21.21
2022-09-12T11:04:32.581Z,21.37
2022-09-12T11:09:36.465Z,21.29
2022-09-12T11:14:48.456Z,21.77
2022-09-12T11:20:20.618Z,21.92
2022-09-12T11:25:36.517Z,22.11
2022-09-12T11:30:54.801Z,22.28
2022-09-12T11:36:00.672Z,22.54
2022-09-12T11:41:09.902Z,22.69
2022-09-12T11:46:37.730Z,22.79
2022-09-12T11:51:58.499Z,22.87
2022-09-12T11:57:09.349Z,22.71
2022-09-12T12:02:17.394Z,22.71
2022-09-12T12:07:19.766Z,22.94
2022-09-12T12:12:28.187Z,23.07
2022-09-12T12:17:32.039Z,23.01
2022-09-12T12:22:36.035Z,23.02
2022-09-12T12:27:44.562Z,23.15
2022-09-12T12:32:46.397Z,23.43
2022-09-12T12:37:52.336Z,23.31
2022-09-12T12:43:05.303Z,23.43
2022-09-12T12:48:15.825Z,23.65
2022-09-12T12:53:20.315Z,23.67
2022-09-12T12:58:38.875Z,23.89
2022-09-12T13:04:01.989Z,23.99
2022-09-12T13:09:09.135Z,24.17
2022-09-12T13:14:38.056Z,24.08
2022-09-12T13:19:40.754Z,24.10
2022-09-12T13:24:49.066Z,24.22
2022-09-12T13:30:05.548Z,24.24
2022-09-12T13:35:16.755Z,24.22
2022-09-12T13:40:26.837Z,24.27
2022-09-12T13:45:28.675Z,24.44
2022-09-12T13:50:41.509Z,24.62
2022-09-12T13:55:47.854Z,24.53
2022-09-12T14:01:29.071Z,24.55
2022-09-12T14:06:48.897Z,24.53
2022-09-12T14:11:52.276Z,24.55
2022-09-12T14:16:54.895Z,24.59
2022-09-12T14:21:57.873Z,24.76
2022-09-12T14:27:00.272Z,24.67
2022-09-12T14:32:05.927Z,24.64
2022-09-12T14:37:07.804Z,24.57
2022-09-12T14:42:23.265Z,24.61
2022-09-12T14:47:28.368Z,24.53
2022-09-12T14:52:35.178Z,24.51
2022-09-12T14:57:40.727Z,24.50
2022-09-12T15:02:46.477Z,24.60
2022-09-12T15:08:01.499Z,24.69
2022-09-12T15:13:09.415Z,24.85
2022-09-12T15:18:12.253Z,24.89
2022-09-12T15:23:30.716Z,25.01
2022-09-12T15:28:35.937Z,24.60
2022-09-12T15:33:39.331Z,24.67
2022-09-12T15:38:41.248Z,24.63
2022-09-12T15:43:43.034Z,24.52
2022-09-12T15:48:45.188Z,24.47
2022-09-12T15:53:49.158Z,24.46
2022-09-12T15:58:59.995Z,24.39
2022-09-12T16:04:03.747Z,24.13
2022-09-12T16:09:05.829Z,24.07
2022-09-12T16:14:07.947Z,24.09
2022-09-12T16:19:10.264Z,23.94
2022-09-12T16:24:12.236Z,23.72
2022-09-12T16:29:17.483Z,23.65
2022-09-12T16:34:20.997Z,23.49
2022-09-12T16:39:22.826Z,23.32
2022-09-12T16:44:24.687Z,23.18
2022-09-12T16:49:26.541Z,22.94
2022-09-12T16:54:28.373Z,22.68
2022-09-12T16:59:30.137Z,22.48
2022-09-12T17:04:32.007Z,22.22
2022-09-12T17:09:33.858Z,21.94
2022-09-12T17:14:35.667Z,21.73
2022-09-12T17:19:37.545Z,21.56
2022-09-12T17:24:40.607Z,21.51
2022-09-12T17:29:42.465Z,21.42
2022-09-12T17:34:45.356Z,21.27
2022-09-12T17:39:48.849Z,21.05
2022-09-12T17:45:02.098Z,20.85
2022-09-12T17:50:30.437Z,20.65
2022-09-12T17:55:28.907Z,20.46
2022-09-12T18:00:51.759Z,20.28
2022-09-12T18:05:58.037Z,20.10
2022-09-12T18:11:06.407Z,19.97
2022-09-12T18:16:10.514Z,19.75
2022-09-12T18:21:12.629Z,19.51
2022-09-12T18:26:14.684Z,19.39
2022-09-12T18:31:19.706Z,19.32
2022-09-12T18:36:22.058Z,19.23
2022-09-12T18:41:25.078Z,19.13
2022-09-12T18:46:29.198Z,18.94
2022-09-12T18:51:49.236Z,18.81
2022-09-12T18:56:52.830Z,18.71
2022-09-12T19:01:57.663Z,18.61
2022-09-12T19:06:59.564Z,18.56
2022-09-12T19:12:01.490Z,18.41
2022-09-12T19:17:03.657Z,18.21
2022-09-12T19:22:05.575Z,17.93
2022-09-12T19:27:11.781Z,17.79
2022-09-12T19:32:16.567Z,17.68
2022-09-12T19:37:20.299Z,17.60
2022-09-12T19:42:23.623Z,17.47
2022-09-12T19:47:25.412Z,17.29
2022-09-12T19:52:27.413Z,17.25
2022-09-12T19:57:29.520Z,16.95
2022-09-12T20:02:31.268Z,16.93
2022-09-12T20:07:33.450Z,16.99
2022-09-12T20:12:35.870Z,16.97
2022-09-12T20:17:38.491Z,16.90
2022-09-12T20:22:40.396Z,16.62
2022-09-12T20:27:42.753Z,16.28
2022-09-12T20:32:44.967Z,16.11
2022-09-12T20:37:47.246Z,16.26
2022-09-12T20:42:48.970Z,16.36
2022-09-12T20:47:51.719Z,16.42
2022-09-12T20:53:01.745Z,16.33
2022-09-12T20:58:03.619Z,16.12
2022-09-12T21:03:05.473Z,15.94
2022-09-12T21:08:07.139Z,15.71
2022-09-12T21:13:13.236Z,15.81
2022-09-12T21:18:15.018Z,15.89
2022-09-12T21:23:16.887Z,15.84
2022-09-12T21:28:18.762Z,15.84
2022-09-12T21:33:21.480Z,15.85
2022-09-12T21:38:23.121Z,15.86
2022-09-12T21:43:24.807Z,15.80
2022-09-12T21:48:38.678Z,15.75
2022-09-12T21:53:40.391Z,15.78
2022-09-12T21:58:42.107Z,15.73
2022-09-12T22:03:44.903Z,15.64
2022-09-12T22:08:46.541Z,15.51
2022-09-12T22:13:48.349Z,15.21
2022-09-12T22:18:50.881Z,15.25
2022-09-12T22:24:10.973Z,15.20
2022-09-12T22:29:15.857Z,15.12
2022-09-12T22:34:45.802Z,15.08
2022-09-12T22:39:47.544Z,15.16
2022-09-12T22:44:53.386Z,15.15
2022-09-12T22:49:55.074Z,15.06
2022-09-12T22:54:57.333Z,14.91
2022-09-12T22:59:59.001Z,14.78
2022-09-12T23:05:00.681Z,14.62
2022-09-12T23:10:02.388Z,14.66
2022-09-12T23:15:04.854Z,14.75
2022-09-12T23:20:07.020Z,14.67
2022-09-12T23:25:09.006Z,14.58
2022-09-12T23:30:11.340Z,14.62
2022-09-12T23:35:13.049Z,14.66
2022-09-12T23:40:14.908Z,14.58
2022-09-12T23:45:16.642Z,14.49
2022-09-12T23:50:18.410Z,14.30
2022-09-12T23:55:20.147Z,14.34
